Sylmar, California
Current Conditions -  °F | °C
As of 9:51 PM on Monday 20 Oct 2014 (Local Time) from KVNY Reporting Station
Clear Clear  
Wind Chill: 67°   Ceiling: Unl
Heat Index: 67°   Visibility: 10mi
Dew Point: 56°   Wind: 0mph
Humidity: 68%   Direction: NA
Pressure: 29.91"   Gusts: NA
Location:  34.31°N, 118.45°W
Report Text: KVNY 210451Z 00000KT 10SM CLR 19/13 A2991 RMK AO2 SLP122 T01940133
Loading
Personal Weather Stations






























Interactive Weather Map
Tropical Storm Tracking
New forecast layout! Learn more

10-Day Weather Forecast

Advertisements
Track Severe Weather on mobile